Time;durP1;ratioP1;P1;durP2;ratioP2;P2;SDS_P1;SDS_P2;PMS_P1;PMS_P2;Temp;Humidity;BMP_temperature;BMP_pressure;BME280_temperature;BME280_humidity;BME280_pressure;Samples;Min_cycle;Max_cycle;Signal;HPM_P1;HPM_P2
2023/01/21 00:03:20;;;;;;;41.03;19.95;;;;;;;-1.98;72.63;101364.75;10204134;29;20074;-76
2023/01/21 00:08:23;;;;;;;41.97;21.20;;;;;;;-1.94;72.91;101371.72;10206432;29;20043;-75
2023/01/21 00:13:25;;;;;;;41.05;20.15;;;;;;;-1.99;72.58;101384.09;10209607;29;20075;-75
2023/01/21 00:18:29;;;;;;;36.63;19.65;;;;;;;-2.07;72.25;101393.84;10215478;29;20146;-77
2023/01/21 00:23:32;;;;;;;43.03;20.92;;;;;;;-2.03;72.31;101395.53;10214046;29;20581;-75
2023/01/21 00:28:36;;;;;;;43.78;21.90;;;;;;;-2.01;72.44;101400.78;10214915;29;20040;-76
2023/01/21 00:33:40;;;;;;;45.22;21.42;;;;;;;-2.01;72.62;101409.56;10215068;29;20519;-76
2023/01/21 00:38:43;;;;;;;44.83;23.10;;;;;;;-2.02;72.40;101414.84;10214913;29;20054;-76
2023/01/21 00:43:46;;;;;;;43.08;21.95;;;;;;;-2.06;72.05;101416.63;10213415;29;20043;-77
2023/01/21 00:48:50;;;;;;;44.80;21.67;;;;;;;-2.05;72.06;101422.81;10208287;29;20071;-75
2023/01/21 00:53:53;;;;;;;42.00;21.27;;;;;;;-2.09;72.37;101427.22;10213076;29;20123;-77
2023/01/21 00:58:55;;;;;;;43.80;22.02;;;;;;;-2.05;72.51;101435.97;10213810;29;20046;-76
2023/01/21 01:04:00;;;;;;;55.13;24.45;;;;;;;-2.02;72.58;101452.59;10213447;29;20127;-77
2023/01/21 01:09:03;;;;;;;56.45;24.02;;;;;;;-2.02;72.75;101459.63;10211291;29;20471;-75
2023/01/21 01:14:05;;;;;;;43.35;22.30;;;;;;;-2.02;72.36;101471.03;10213078;29;20115;-75
2023/01/21 01:19:11;;;;;;;48.13;21.83;;;;;;;-2.01;72.30;101482.44;10208390;29;20048;-76
2023/01/21 01:24:14;;;;;;;43.15;21.92;;;;;;;-2.06;72.39;101490.38;10211320;29;20055;-75
2023/01/21 01:29:17;;;;;;;45.90;22.33;;;;;;;-2.08;72.31;101484.28;10212210;29;20075;-76
2023/01/21 01:34:21;;;;;;;50.00;21.67;;;;;;;-2.10;72.00;101500.06;10208531;29;20040;-75
2023/01/21 01:39:24;;;;;;;44.22;21.35;;;;;;;-2.11;72.13;101500.09;10191398;29;20123;-75
2023/01/21 01:44:56;;;;;;;44.83;21.13;;;;;;;-2.02;72.26;101512.28;10210521;29;20131;-75
2023/01/21 01:50:02;;;;;;;42.85;20.52;;;;;;;-2.03;72.46;101526.34;10209614;29;20082;-76
2023/01/21 01:55:07;;;;;;;49.33;22.50;;;;;;;-2.05;72.32;101533.41;10176205;29;20078;-75
2023/01/21 02:00:12;;;;;;;42.85;21.83;;;;;;;-2.12;72.17;101548.38;10173054;29;20072;-76
2023/01/21 02:05:16;;;;;;;43.42;21.98;;;;;;;-2.16;72.23;101549.31;10173316;29;20534;-76
2023/01/21 02:10:20;;;;;;;43.97;21.70;;;;;;;-2.24;72.29;101557.25;10172248;29;20055;-78
2023/01/21 02:15:28;;;;;;;46.17;22.38;;;;;;;-2.23;72.77;101569.53;10155389;29;20199;-75
2023/01/21 02:21:06;;;;;;;49.03;22.95;;;;;;;-2.26;72.70;101576.59;10170628;29;20096;-76
2023/01/21 02:26:34;;;;;;;53.95;23.92;;;;;;;-2.25;73.09;101579.19;10181547;29;20127;-76
2023/01/21 02:31:57;;;;;;;51.70;23.48;;;;;;;-2.24;72.76;101578.31;10182820;29;20120;-76
2023/01/21 02:37:09;;;;;;;50.78;25.25;;;;;;;-2.25;73.21;101576.56;10179412;29;20476;-76
2023/01/21 02:42:22;;;;;;;54.35;24.77;;;;;;;-2.22;72.96;101584.47;10183377;29;20478;-75
2023/01/21 02:47:29;;;;;;;47.58;22.38;;;;;;;-2.22;73.01;101586.19;10185655;29;20500;-76
2023/01/21 02:52:33;;;;;;;59.90;25.20;;;;;;;-2.22;73.23;101591.47;10176217;29;20043;-76
2023/01/21 02:57:42;;;;;;;54.08;24.88;;;;;;;-2.32;73.36;101596.81;10170837;29;20048;-76
2023/01/21 03:03:13;;;;;;;54.78;25.23;;;;;;;-2.29;73.71;101598.56;10171001;29;20080;-76
2023/01/21 03:08:21;;;;;;;50.38;23.65;;;;;;;-2.26;73.72;101605.53;10170629;29;20052;-76
2023/01/21 03:18:56;;;;;;;57.92;26.40;;;;;;;-2.27;74.24;101603.81;10201079;29;20059;-75
2023/01/21 03:24:01;;;;;;;66.13;28.23;;;;;;;-2.25;73.97;101607.28;10208192;29;20127;-75
2023/01/21 03:29:09;;;;;;;61.72;26.75;;;;;;;-2.24;74.05;101609.91;10189394;29;20419;-77
2023/01/21 03:34:15;;;;;;;61.28;26.27;;;;;;;-2.22;74.11;101618.69;10205390;29;20040;-76
2023/01/21 03:39:28;;;;;;;60.22;26.75;;;;;;;-2.07;74.58;101607.13;10201969;29;20527;-76
2023/01/21 03:44:31;;;;;;;63.67;28.17;;;;;;;-1.92;74.10;101609.63;10197547;29;20484;-76
2023/01/21 03:49:38;;;;;;;61.30;26.55;;;;;;;-1.86;74.18;101612.19;10202471;29;20495;-77
2023/01/21 03:54:42;;;;;;;56.00;26.13;;;;;;;-1.78;73.83;101613.84;10208905;29;20131;-75
2023/01/21 03:59:45;;;;;;;61.72;28.00;;;;;;;-1.66;74.04;101617.25;10190467;29;20123;-76
2023/01/21 04:04:48;;;;;;;66.88;28.05;;;;;;;-1.55;73.77;101617.13;10177056;29;20174;-75
2023/01/21 04:09:52;;;;;;;63.65;27.73;;;;;;;-1.50;73.98;101623.22;10176655;29;20052;-76
2023/01/21 04:14:56;;;;;;;74.03;29.52;;;;;;;-1.42;73.75;101623.16;10176707;29;20048;-76
2023/01/21 04:19:58;;;;;;;64.05;28.50;;;;;;;-1.38;73.72;101631.88;10176137;29;20059;-75
2023/01/21 04:25:04;;;;;;;62.28;27.05;;;;;;;-1.36;74.01;101635.38;10188527;29;20083;-76
2023/01/21 04:30:08;;;;;;;70.80;27.20;;;;;;;-1.29;73.83;101637.03;10191210;29;20048;-76
2023/01/21 04:35:11;;;;;;;65.57;27.35;;;;;;;-1.27;73.84;101638.78;10201625;29;20143;-76
2023/01/21 04:40:15;;;;;;;63.67;28.23;;;;;;;-1.23;73.60;101637.00;10181250;29;20090;-76
2023/01/21 04:45:18;;;;;;;67.85;28.42;;;;;;;-1.14;73.95;101638.63;10197481;29;20055;-76
2023/01/21 04:50:21;;;;;;;61.38;26.75;;;;;;;-1.07;74.00;101643.81;10191486;29;20090;-76
2023/01/21 04:55:25;;;;;;;67.32;27.65;;;;;;;-1.00;73.65;101649.88;10202705;29;20082;-77
2023/01/21 05:00:28;;;;;;;61.20;26.63;;;;;;;-0.99;73.53;101652.50;10192877;29;20072;-77
2023/01/21 05:05:30;;;;;;;60.90;25.30;;;;;;;-0.98;73.75;101645.47;10194506;29;20044;-75
2023/01/21 05:10:35;;;;;;;62.35;27.25;;;;;;;-0.95;74.17;101653.34;10184539;29;20111;-76
2023/01/21 05:15:37;;;;;;;70.40;28.58;;;;;;;-0.92;73.99;101658.56;10200383;29;20139;-76
2023/01/21 05:20:40;;;;;;;67.63;28.55;;;;;;;-0.89;74.08;101665.56;10196995;29;20048;-76
2023/01/21 05:25:44;;;;;;;60.42;27.88;;;;;;;-0.89;74.03;101665.56;10209203;29;20046;-75
2023/01/21 05:30:47;;;;;;;64.80;28.58;;;;;;;-0.88;74.06;101676.09;10207087;29;20059;-76
2023/01/21 05:35:50;;;;;;;62.92;27.67;;;;;;;-0.83;73.96;101683.94;10194719;29;20415;-75
2023/01/21 05:40:58;;;;;;;62.60;28.45;;;;;;;-0.81;74.12;101688.31;10186619;29;20052;-76
2023/01/21 05:46:00;;;;;;;59.53;27.60;;;;;;;-0.81;74.34;101692.72;10187050;29;20048;-76
2023/01/21 05:51:04;;;;;;;61.22;27.30;;;;;;;-0.78;74.49;101697.97;10196084;29;20507;-76
2023/01/21 05:56:08;;;;;;;73.00;28.50;;;;;;;-0.79;74.52;101710.28;10200946;29;20048;-76
2023/01/21 06:01:11;;;;;;;67.38;27.13;;;;;;;-0.74;74.75;101723.41;10176529;29;20081;-77
2023/01/21 06:06:14;;;;;;;70.30;28.17;;;;;;;-0.69;74.55;101718.09;10191112;29;20047;-76
2023/01/21 06:11:18;;;;;;;61.45;27.85;;;;;;;-0.62;74.63;101732.97;10192125;29;20131;-76
2023/01/21 06:16:20;;;;;;;58.35;26.58;;;;;;;-0.60;74.69;101731.19;10191135;29;20106;-76
2023/01/21 06:21:23;;;;;;;62.47;27.27;;;;;;;-0.53;74.71;101735.47;10181843;29;20503;-76
2023/01/21 06:26:27;;;;;;;60.40;26.17;;;;;;;-0.48;74.74;101733.63;10188593;29;20119;-76
2023/01/21 06:31:30;;;;;;;65.93;26.88;;;;;;;-0.53;74.45;101743.38;10190839;29;20443;-75
2023/01/21 06:36:34;;;;;;;62.03;27.88;;;;;;;-0.54;74.64;101758.34;10199972;29;20048;-76
2023/01/21 06:41:38;;;;;;;62.58;26.95;;;;;;;-0.51;74.88;101760.09;10181005;29;20107;-75
2023/01/21 06:46:41;;;;;;;64.68;26.85;;;;;;;-0.56;74.74;101762.78;10199210;29;20083;-75
2023/01/21 06:51:55;;;;;;;71.53;29.15;;;;;;;-0.50;74.91;101760.03;10188809;29;20039;-75
2023/01/21 06:56:59;;;;;;;67.78;27.80;;;;;;;-0.48;74.67;101761.81;10172240;29;20040;-76
2023/01/21 07:02:02;;;;;;;65.78;27.30;;;;;;;-0.45;74.59;101770.56;10171840;29;20119;-77
2023/01/21 07:07:04;;;;;;;59.72;27.10;;;;;;;-0.43;74.81;101768.78;10171460;29;20113;-76
2023/01/21 07:12:09;;;;;;;64.35;26.40;;;;;;;-0.44;74.53;101776.69;10171687;29;20104;-75
2023/01/21 07:17:12;;;;;;;62.22;28.50;;;;;;;-0.42;74.94;101786.34;10171326;29;20067;-77
2023/01/21 07:22:15;;;;;;;82.05;36.83;;;;;;;-0.43;74.97;101792.53;10172610;29;20040;-76
2023/01/21 07:27:19;;;;;;;74.38;29.73;;;;;;;-0.42;74.89;101798.69;10178964;29;20040;-76
2023/01/21 07:32:22;;;;;;;77.18;30.48;;;;;;;-0.46;75.10;101802.28;10179354;29;20095;-76
2023/01/21 07:37:25;;;;;;;73.03;30.13;;;;;;;-0.42;75.06;101812.75;10178991;29;20134;-76
2023/01/21 07:42:29;;;;;;;73.10;28.58;;;;;;;-0.40;74.83;101812.75;10178931;29;20463;-76
2023/01/21 07:47:31;;;;;;;69.20;29.50;;;;;;;-0.46;74.92;101815.47;10196472;29;20086;-76
2023/01/21 07:52:34;;;;;;;71.97;29.50;;;;;;;-0.37;74.98;101825.91;10187354;29;20040;-76
2023/01/21 07:57:38;;;;;;;70.80;28.05;;;;;;;-0.30;74.92;101827.59;10215415;29;20111;-76
2023/01/21 08:02:41;;;;;;;71.85;28.70;;;;;;;-0.24;74.70;101832.78;10200075;29;20063;-76
2023/01/21 08:07:44;;;;;;;69.32;28.30;;;;;;;-0.21;74.78;101843.31;10187729;29;20051;-76
2023/01/21 08:12:48;;;;;;;79.00;29.80;;;;;;;-0.12;74.80;101850.25;10183977;29;20047;-76
2023/01/21 08:17:51;;;;;;;72.07;30.92;;;;;;;-0.07;74.73;101858.97;10189441;29;20134;-76
2023/01/21 08:22:54;;;;;;;69.78;30.13;;;;;;;-0.04;74.29;101855.44;10184604;29;20138;-76
2023/01/21 08:27:59;;;;;;;76.70;30.60;;;;;;;-0.01;74.63;101852.75;10204347;29;20044;-76
2023/01/21 08:33:02;;;;;;;81.13;30.25;;;;;;;0.03;74.53;101857.06;10177161;29;20481;-76
2023/01/21 08:38:08;;;;;;;76.68;30.58;;;;;;;0.14;74.63;101849.91;10176217;29;20087;-77
2023/01/21 08:43:12;;;;;;;103.78;34.13;;;;;;;0.47;75.53;101858.22;10177692;29;20124;-76
2023/01/21 08:48:15;;;;;;;53.50;24.88;;;;;;;0.83;74.53;101864.69;10177127;29;20078;-76
2023/01/21 08:53:17;;;;;;;50.92;24.85;;;;;;;1.20;73.34;101864.88;10176215;29;20100;-77
2023/01/21 08:58:21;;;;;;;57.28;27.75;;;;;;;1.40;72.48;101869.81;10174276;29;20055;-75
2023/01/21 09:03:24;;;;;;;54.90;25.13;;;;;;;1.47;71.51;101873.22;10175539;29;20825;-76
2023/01/21 09:08:27;;;;;;;66.85;28.98;;;;;;;1.28;70.83;101877.97;10175634;29;20100;-76
2023/01/21 09:13:33;;;;;;;75.05;31.65;;;;;;;0.95;71.55;101892.69;10175526;29;20071;-76
2023/01/21 09:18:36;;;;;;;81.07;31.92;;;;;;;0.80;72.19;101899.13;10177250;29;20040;-76
2023/01/21 09:23:40;;;;;;;74.78;32.03;;;;;;;0.65;72.69;101909.94;10214414;29;20151;-75
2023/01/21 09:28:46;;;;;;;81.35;34.10;;;;;;;0.67;73.17;101910.78;10209069;29;20067;-77
2023/01/21 09:33:51;;;;;;;87.82;34.70;;;;;;;0.61;73.72;101919.69;10213973;29;20040;-75
2023/01/21 09:38:54;;;;;;;84.57;33.65;;;;;;;0.55;74.03;101930.34;10174523;29;20079;-76
2023/01/21 09:44:04;;;;;;;89.60;33.55;;;;;;;0.56;74.37;101938.28;10187961;29;20036;-77
2023/01/21 09:49:14;;;;;;;88.82;34.83;;;;;;;0.63;74.47;101944.31;10211208;29;20459;-76
2023/01/21 09:54:21;;;;;;;91.82;34.15;;;;;;;0.73;74.52;101953.00;10210403;29;20119;-76
2023/01/21 09:59:41;;;;;;;84.40;33.67;;;;;;;0.70;74.73;101963.66;10211916;29;20047;-76
2023/01/21 10:04:51;;;;;;;90.25;34.78;;;;;;;0.68;74.78;101963.66;10212797;29;20067;-76
2023/01/21 10:10:05;;;;;;;88.05;33.88;;;;;;;0.73;74.65;101964.47;10212554;29;20039;-75
2023/01/21 10:15:30;;;;;;;80.70;31.40;;;;;;;0.79;74.54;101972.31;10208007;29;20079;-75
2023/01/21 10:20:37;;;;;;;85.10;31.77;;;;;;;0.90;74.37;101976.56;10173465;29;20048;-76
2023/01/21 10:25:41;;;;;;;73.65;27.48;;;;;;;1.01;74.02;101975.50;10191755;29;20067;-76
2023/01/21 10:30:49;;;;;;;70.35;28.95;;;;;;;1.04;73.35;101970.19;10224993;29;20063;-74
2023/01/21 10:36:19;;;;;;;69.85;27.48;;;;;;;1.04;73.05;101971.94;10198338;29;20111;-75
2023/01/21 10:41:32;;;;;;;63.90;25.15;;;;;;;0.94;72.27;101973.84;10178895;29;20052;-76
2023/01/21 10:46:45;;;;;;;62.10;24.98;;;;;;;0.96;72.16;101976.47;10184840;29;20044;-76
2023/01/21 10:51:55;;;;;;;61.03;25.65;;;;;;;0.88;72.17;101973.06;10189612;29;20519;-76
2023/01/21 10:57:06;;;;;;;53.92;23.17;;;;;;;1.02;71.36;101984.34;10188875;29;20048;-76
2023/01/21 11:02:21;;;;;;;50.40;21.17;;;;;;;1.13;70.87;101981.50;10199172;29;20056;-76
2023/01/21 11:07:25;;;;;;;48.85;21.50;;;;;;;1.19;69.73;101979.63;10196419;29;20376;-76
2023/01/21 11:12:29;;;;;;;48.47;20.67;;;;;;;1.33;69.59;101968.81;10190461;29;20079;-76
2023/01/21 11:17:35;;;;;;;46.22;19.63;;;;;;;1.53;68.79;101968.44;10190763;29;20048;-76
2023/01/21 11:22:42;;;;;;;39.75;18.60;;;;;;;1.68;68.26;101957.56;10171692;29;20051;-76
2023/01/21 11:27:45;;;;;;;35.80;15.90;;;;;;;1.74;67.03;101961.88;10199234;29;20087;-76
2023/01/21 11:32:49;;;;;;;35.03;16.20;;;;;;;1.83;66.05;101964.34;10204522;29;20115;-75
2023/01/21 11:37:52;;;;;;;46.42;20.33;;;;;;;1.94;66.53;101958.84;10208276;29;20143;-75
2023/01/21 11:42:56;;;;;;;47.80;21.15;;;;;;;1.96;66.54;101954.38;10203639;29;20534;-76
2023/01/21 11:48:00;;;;;;;34.33;16.00;;;;;;;1.81;66.37;101954.69;10208116;29;20047;-75
2023/01/21 11:53:13;;;;;;;41.53;16.20;;;;;;;1.94;65.51;101953.53;10209954;29;20455;-76
2023/01/21 11:58:19;;;;;;;36.33;17.30;;;;;;;2.21;65.37;101959.19;10198752;29;20043;-75
2023/01/21 12:03:26;;;;;;;35.10;16.42;;;;;;;2.37;65.04;101964.13;10210807;29;20071;-75
2023/01/21 12:08:31;;;;;;;33.70;14.73;;;;;;;2.53;63.80;101953.19;10207662;29;20044;-76
2023/01/21 12:13:43;;;;;;;30.48;14.45;;;;;;;2.76;62.53;101957.97;10195567;29;20044;-77
2023/01/21 12:19:07;;;;;;;31.48;14.90;;;;;;;2.74;61.86;101947.41;10202046;29;20494;-74
2023/01/21 12:24:20;;;;;;;35.40;15.07;;;;;;;2.70;62.00;101953.69;10189173;29;20488;-75
2023/01/21 12:29:45;;;;;;;30.08;13.18;;;;;;;2.41;61.83;101951.66;10188291;29;20451;-76
2023/01/21 12:34:55;;;;;;;25.85;13.18;;;;;;;2.01;62.41;101951.66;10201902;29;20124;-76
2023/01/21 12:40:01;;;;;;;24.65;12.00;;;;;;;2.16;62.60;101943.34;10197916;29;20138;-76
2023/01/21 12:45:11;;;;;;;21.55;11.10;;;;;;;2.33;61.15;101943.00;10210367;29;20055;-76
2023/01/21 12:50:26;;;;;;;26.73;12.18;;;;;;;2.19;61.11;101945.94;10186892;29;20040;-76
2023/01/21 12:55:41;;;;;;;19.33;9.82;;;;;;;2.09;61.38;101939.97;10176381;29;20464;-76
2023/01/21 13:00:48;;;;;;;24.15;9.57;;;;;;;2.08;61.11;101945.28;10190570;29;20149;-76
2023/01/21 13:05:57;;;;;;;25.70;11.52;;;;;;;2.01;61.77;101947.22;10176088;28;20054;-75
2023/01/21 13:11:07;;;;;;;23.88;11.40;;;;;;;1.99;61.39;101943.72;10169297;28;20059;-75
2023/01/21 13:16:11;;;;;;;25.67;10.40;;;;;;;1.94;60.97;101935.84;10174307;28;20052;-75
2023/01/21 13:21:24;;;;;;;21.77;10.70;;;;;;;2.02;61.02;101953.38;10173412;28;20054;-76
2023/01/21 13:26:37;;;;;;;25.27;11.48;;;;;;;2.15;60.90;101955.75;10174328;28;20475;-76
2023/01/21 13:31:46;;;;;;;24.23;10.40;;;;;;;1.94;60.88;101961.47;10178859;28;20043;-75
2023/01/21 13:37:02;;;;;;;22.75;11.02;;;;;;;1.94;60.92;101961.47;10173529;28;20047;-75
2023/01/21 13:42:24;;;;;;;30.17;10.82;;;;;;;2.10;61.11;101959.41;10166284;28;20269;-75
2023/01/21 13:47:43;;;;;;;32.80;14.00;;;;;;;2.09;62.18;101955.88;10176253;28;20070;-74
2023/01/21 13:53:06;;;;;;;37.78;15.95;;;;;;;2.19;62.55;101956.53;10171525;28;20055;-76
2023/01/21 13:58:12;;;;;;;25.73;12.10;;;;;;;2.22;61.92;101939.69;10152209;28;20134;-75
2023/01/21 14:03:25;;;;;;;33.95;15.65;;;;;;;2.47;61.64;101948.00;10169732;28;21212;-75
2023/01/21 14:08:34;;;;;;;29.10;12.13;;;;;;;2.74;60.16;101941.22;10169341;28;20668;-75
2023/01/21 14:13:58;;;;;;;28.17;12.25;;;;;;;2.60;59.51;101958.31;10165622;28;20044;-74
2023/01/21 14:19:22;;;;;;;23.85;11.05;;;;;;;2.32;59.31;101962.47;10167644;28;21315;-75
2023/01/21 14:24:44;;;;;;;21.48;9.82;;;;;;;2.05;59.89;101948.00;10151436;28;20043;-78
2023/01/21 14:29:54;;;;;;;24.58;11.27;;;;;;;1.83;60.80;101964.34;10158961;28;20052;-75
2023/01/21 14:35:13;;;;;;;22.85;11.55;;;;;;;1.69;61.72;101961.97;10133479;29;20647;-75
2023/01/21 14:40:23;;;;;;;24.45;11.45;;;;;;;1.61;62.12;101968.31;10165412;28;20507;-75
2023/01/21 14:45:52;;;;;;;23.60;12.05;;;;;;;1.55;62.18;101971.06;10144506;28;20052;-76
2023/01/21 14:51:09;;;;;;;27.80;12.70;;;;;;;1.50;62.21;101964.06;10162046;28;20043;-75
2023/01/21 14:56:23;;;;;;;25.75;12.65;;;;;;;1.39;62.62;101955.44;10157068;28;20063;-75
2023/01/21 15:01:30;;;;;;;22.90;11.27;;;;;;;1.37;62.70;101962.56;10165788;28;20062;-75
2023/01/21 15:06:38;;;;;;;26.33;12.25;;;;;;;1.35;63.11;101966.16;10163055;28;20043;-73
2023/01/21 15:11:44;;;;;;;24.95;12.27;;;;;;;1.32;63.38;101974.09;10156257;28;20508;-75
2023/01/21 15:16:47;;;;;;;27.10;12.60;;;;;;;1.32;63.72;101961.78;10157515;28;20044;-75
2023/01/21 15:22:16;;;;;;;26.02;13.13;;;;;;;1.27;64.22;101958.31;10173247;28;20063;-75
2023/01/21 15:27:21;;;;;;;27.45;12.75;;;;;;;1.21;64.61;101961.09;10176965;28;20054;-74
2023/01/21 15:32:28;;;;;;;24.15;12.15;;;;;;;1.15;64.73;101962.06;10173359;28;20044;-74
2023/01/21 15:37:36;;;;;;;27.25;12.25;;;;;;;1.07;64.95;101961.31;10166839;28;20047;-75
2023/01/21 15:42:49;;;;;;;27.75;12.68;;;;;;;0.93;65.76;101965.94;10171812;28;20179;-75
2023/01/21 15:48:14;;;;;;;28.02;14.15;;;;;;;0.93;65.94;101958.00;10173089;28;20103;-74
2023/01/21 15:53:40;;;;;;;29.02;14.40;;;;;;;0.96;66.51;101957.94;10173080;28;20191;-74
2023/01/21 15:58:56;;;;;;;35.13;16.27;;;;;;;0.92;66.69;101957.13;10142812;29;20047;-75
2023/01/21 16:04:18;;;;;;;35.42;16.45;;;;;;;0.79;67.01;101955.56;10143378;29;20056;-73
2023/01/21 16:09:31;;;;;;;34.38;15.18;;;;;;;0.67;67.68;101946.06;10167336;28;20051;-75
2023/01/21 16:14:55;;;;;;;34.10;15.25;;;;;;;0.61;67.69;101951.44;10181010;28;20079;-75
2023/01/21 16:20:00;;;;;;;33.22;15.73;;;;;;;0.61;67.72;101954.94;10174545;28;20147;-75
2023/01/21 16:25:09;;;;;;;32.60;14.95;;;;;;;0.51;68.18;101950.69;10173898;28;20139;-74
2023/01/21 16:30:16;;;;;;;37.53;16.15;;;;;;;0.45;68.25;101961.34;10184216;28;20195;-75
2023/01/21 16:35:19;;;;;;;35.10;15.35;;;;;;;0.35;68.67;101957.94;10172609;28;20058;-74
2023/01/21 16:40:29;;;;;;;32.67;14.93;;;;;;;0.31;68.46;101960.66;10168827;28;20047;-75
2023/01/21 16:45:33;;;;;;;28.75;13.77;;;;;;;0.30;68.60;101959.81;10164042;28;20604;-75
2023/01/21 16:50:37;;;;;;;33.60;14.77;;;;;;;0.29;68.31;101963.31;10162912;28;20047;-75
2023/01/21 16:55:44;;;;;;;33.35;15.55;;;;;;;0.31;68.52;101963.31;10163309;28;20384;-75
2023/01/21 17:00:58;;;;;;;33.67;16.00;;;;;;;0.36;68.67;101964.13;10138142;29;20075;-76
2023/01/21 17:06:08;;;;;;;37.25;16.70;;;;;;;0.41;68.83;101967.56;10169840;28;20052;-75
2023/01/21 17:11:11;;;;;;;37.58;17.08;;;;;;;0.44;69.30;101969.28;10140524;29;20513;-74
2023/01/21 17:16:28;;;;;;;41.65;18.83;;;;;;;0.41;70.28;101972.84;10152521;28;20062;-76
2023/01/21 17:21:35;;;;;;;49.72;20.63;;;;;;;0.47;70.56;101979.84;10138717;29;20134;-74
2023/01/21 17:26:44;;;;;;;45.95;20.20;;;;;;;0.50;70.95;101982.44;10139083;29;20162;-75
2023/01/21 17:31:55;;;;;;;49.25;21.90;;;;;;;0.55;71.39;101993.81;10136474;29;20586;-75
2023/01/21 17:36:59;;;;;;;52.30;21.80;;;;;;;0.49;71.59;101986.84;10136184;29;20060;-73
2023/01/21 17:42:03;;;;;;;51.15;21.67;;;;;;;0.53;71.73;101993.84;10136985;29;20495;-74
2023/01/21 17:47:21;;;;;;;50.72;20.92;;;;;;;0.56;71.90;102000.88;10134243;29;20216;-74
2023/01/21 17:52:24;;;;;;;49.22;22.05;;;;;;;0.61;71.87;101999.03;10160932;28;20059;-73
2023/01/21 17:57:33;;;;;;;52.67;22.48;;;;;;;0.63;71.98;101985.78;10162640;28;20131;-74
2023/01/21 18:02:37;;;;;;;57.28;23.45;;;;;;;0.64;72.02;101979.63;10153848;28;20040;-75
2023/01/21 18:07:40;;;;;;;59.95;22.83;;;;;;;0.63;72.09;101984.00;10147136;28;20459;-74
2023/01/21 18:12:43;;;;;;;54.22;22.35;;;;;;;0.57;71.72;101974.38;10164590;28;20142;-75
2023/01/21 18:17:49;;;;;;;51.90;21.58;;;;;;;0.55;71.90;101968.28;10136340;29;20052;-75
2023/01/21 18:22:53;;;;;;;53.35;21.20;;;;;;;0.65;71.95;101968.13;10136682;29;20044;-73
2023/01/21 18:27:56;;;;;;;46.92;19.33;;;;;;;0.66;71.50;101968.13;10136612;29;20044;-74
2023/01/21 18:33:00;;;;;;;52.53;21.58;;;;;;;0.69;71.47;101959.25;10137098;29;20059;-74
2023/01/21 18:38:03;;;;;;;39.58;17.48;;;;;;;0.67;70.78;101956.63;10134087;29;20556;-74
2023/01/21 18:43:06;;;;;;;38.03;16.15;;;;;;;0.69;70.70;101965.44;10135730;29;20134;-75
2023/01/21 18:48:14;;;;;;;38.05;16.52;;;;;;;0.77;70.26;101976.78;10155351;28;20053;-75
2023/01/21 18:53:16;;;;;;;41.63;17.60;;;;;;;0.83;69.89;101975.81;10149857;28;20048;-75
2023/01/21 18:58:19;;;;;;;38.75;16.58;;;;;;;0.84;69.68;101970.47;10147704;28;20059;-74
2023/01/21 19:03:24;;;;;;;39.75;18.13;;;;;;;0.88;69.52;101975.72;10154028;28;20068;-75
2023/01/21 19:08:28;;;;;;;39.10;17.23;;;;;;;0.81;69.52;101981.09;10134364;29;20647;-74
2023/01/21 19:13:31;;;;;;;43.78;17.67;;;;;;;0.75;70.19;101975.91;10132790;29;21248;-75
2023/01/21 19:18:35;;;;;;;43.67;19.95;;;;;;;0.75;70.22;101973.25;10137006;29;20052;-75
2023/01/21 19:23:39;;;;;;;43.38;18.90;;;;;;;0.67;70.49;101969.84;10141815;29;21538;-76
2023/01/21 19:28:42;;;;;;;42.47;17.80;;;;;;;0.67;70.73;101961.91;10142160;29;20052;-74
2023/01/21 19:33:46;;;;;;;40.35;18.40;;;;;;;0.69;71.17;101969.84;10140928;29;20423;-74
2023/01/21 19:38:54;;;;;;;44.90;18.83;;;;;;;0.70;71.41;101963.66;10141107;29;20052;-74
2023/01/21 19:43:57;;;;;;;49.25;20.15;;;;;;;0.67;71.80;101972.50;10154001;28;20491;-74
2023/01/21 19:49:04;;;;;;;43.13;19.13;;;;;;;0.71;71.81;101963.59;10155380;28;20059;-75
2023/01/21 19:54:07;;;;;;;45.33;19.90;;;;;;;0.61;72.51;101964.66;10147582;28;20075;-74
2023/01/21 19:59:14;;;;;;;45.30;21.25;;;;;;;0.50;72.35;101974.53;10144006;29;20052;-75
2023/01/21 20:04:18;;;;;;;41.20;18.83;;;;;;;0.54;72.68;101966.50;10139205;29;20050;-74
2023/01/21 20:09:21;;;;;;;43.17;19.23;;;;;;;0.67;72.49;101955.75;10137485;29;20090;-74
2023/01/21 20:14:23;;;;;;;44.50;20.27;;;;;;;0.59;72.51;101953.22;10140270;29;20059;-74
2023/01/21 20:19:28;;;;;;;43.97;20.20;;;;;;;0.54;72.92;101953.28;10138954;29;20056;-75
2023/01/21 20:24:32;;;;;;;39.97;18.55;;;;;;;0.54;72.92;101950.63;10146848;28;20104;-74
2023/01/21 20:29:35;;;;;;;41.08;18.60;;;;;;;0.52;73.29;101936.59;10159419;28;20119;-74
2023/01/21 20:34:42;;;;;;;45.92;21.05;;;;;;;0.56;73.40;101942.69;10154265;28;20721;-74
2023/01/21 20:39:45;;;;;;;42.85;20.52;;;;;;;0.54;73.16;101953.28;10158494;28;20130;-74
2023/01/21 20:44:48;;;;;;;42.40;20.02;;;;;;;0.66;73.05;101946.97;10175575;28;20044;-75
2023/01/21 20:49:52;;;;;;;43.80;20.52;;;;;;;0.64;73.27;101954.03;10170270;28;20530;-75
2023/01/21 20:54:55;;;;;;;42.55;20.25;;;;;;;0.63;73.49;101957.56;10158436;28;20075;-75
2023/01/21 20:59:58;;;;;;;44.92;21.80;;;;;;;0.64;73.52;101961.97;10138006;29;20544;-74
2023/01/21 21:05:02;;;;;;;40.50;19.60;;;;;;;0.50;73.51;101966.59;10136381;29;20083;-75
2023/01/21 21:10:05;;;;;;;38.35;19.83;;;;;;;0.66;73.13;101973.41;10162281;28;20051;-74
2023/01/21 21:15:10;;;;;;;37.50;18.70;;;;;;;0.65;72.96;101963.69;10151187;28;20048;-75
2023/01/21 21:20:18;;;;;;;37.95;18.00;;;;;;;0.61;72.90;101969.94;10153452;28;20113;-76
2023/01/21 21:25:24;;;;;;;34.75;17.25;;;;;;;0.60;72.55;101969.09;10151960;28;20056;-75
2023/01/21 21:30:29;;;;;;;36.33;16.98;;;;;;;0.65;72.39;101963.69;10169473;28;20077;-76
2023/01/21 21:35:35;;;;;;;34.05;16.98;;;;;;;0.51;72.23;101961.25;10168775;28;20051;-74
2023/01/21 21:40:38;;;;;;;33.95;16.90;;;;;;;0.42;72.74;101948.19;10172293;28;20130;-75
2023/01/21 21:48:36;;;;;;;30.90;15.63;;;;;;;0.50;72.39;101948.94;10167393;28;20071;-76
2023/01/21 21:51:06;;;;;;;28.38;14.75;;;;;;;0.55;71.76;101923.31;10171462;28;20056;-75
2023/01/21 21:56:10;;;;;;;30.35;15.10;;;;;;;0.48;71.85;101941.94;10167762;28;20059;-75
2023/01/21 22:01:19;;;;;;;31.52;15.40;;;;;;;0.57;71.50;101949.72;10169038;28;20047;-75
2023/01/21 22:06:24;;;;;;;28.48;14.48;;;;;;;0.60;70.89;101947.94;10166883;28;20047;-76
2023/01/21 22:11:28;;;;;;;24.00;13.00;;;;;;;0.58;70.99;101943.56;10169133;28;20695;-75
2023/01/21 22:16:32;;;;;;;25.83;13.75;;;;;;;0.56;70.30;101938.28;10173137;28;20127;-75
2023/01/21 22:21:36;;;;;;;25.30;13.50;;;;;;;0.58;70.14;101948.84;10169186;28;20059;-74
2023/01/21 22:26:39;;;;;;;24.65;13.13;;;;;;;0.57;69.88;101942.66;10162046;28;20057;-75
2023/01/21 22:31:42;;;;;;;23.02;13.25;;;;;;;0.65;69.96;101937.25;10172407;28;20152;-76
2023/01/21 22:36:47;;;;;;;28.30;13.55;;;;;;;0.58;69.77;101931.19;10169955;28;20052;-75
2023/01/21 22:41:49;;;;;;;23.98;13.40;;;;;;;0.61;69.81;101930.28;10171909;28;21255;-76
2023/01/21 22:46:52;;;;;;;23.25;12.90;;;;;;;0.61;69.88;101930.28;10169876;28;20052;-76
2023/01/21 22:51:56;;;;;;;24.17;12.98;;;;;;;0.57;70.79;101932.06;10167831;28;20059;-75
2023/01/21 22:56:59;;;;;;;23.30;13.63;;;;;;;0.46;71.79;101936.66;10166967;28;21316;-75
2023/01/21 23:02:02;;;;;;;26.63;14.93;;;;;;;0.32;72.58;101920.09;10186830;28;20423;-77
2023/01/21 23:07:06;;;;;;;25.75;14.00;;;;;;;0.39;72.58;101924.44;10170533;29;20048;-75
2023/01/21 23:12:17;;;;;;;23.35;12.70;;;;;;;0.43;72.60;101904.97;10191276;29;20040;-76
2023/01/21 23:17:20;;;;;;;26.15;14.30;;;;;;;0.45;72.64;101918.19;10183210;29;20649;-76